Time;durP1;ratioP1;P1;durP2;ratioP2;P2;SDS_P1;SDS_P2;PMS_P1;PMS_P2;Temp;Humidity;BMP_temperature;BMP_pressure;BME280_temperature;BME280_humidity;BME280_pressure;Samples;Min_cycle;Max_cycle;Signal;HPM_P1;HPM_P2
2021/11/13 00:01:12;;;;;;;20.70;14.05;;;;;;;4.45;77.87;101618.27;1749290;82;20995;-44
2021/11/13 00:03:39;;;;;;;17.67;13.22;;;;;;;4.46;77.88;101620.00;1749254;82;21138;-44
2021/11/13 00:06:05;;;;;;;18.80;13.45;;;;;;;4.46;77.88;101622.56;1749208;82;21666;-45
2021/11/13 00:08:32;;;;;;;21.12;14.95;;;;;;;4.46;77.88;101622.56;1749107;82;20939;-44
2021/11/13 00:11:00;;;;;;;22.15;14.55;;;;;;;4.43;78.02;101622.06;1749170;81;20933;-44
2021/11/13 00:13:27;;;;;;;21.95;13.78;;;;;;;4.38;78.11;101615.95;1739228;81;21008;-44
2021/11/13 00:15:54;;;;;;;23.98;13.55;;;;;;;4.38;78.23;101616.35;1735142;81;22066;-45
2021/11/13 00:18:22;;;;;;;20.37;13.83;;;;;;;4.34;78.18;101612.86;1714791;82;20893;-42
2021/11/13 00:20:50;;;;;;;20.40;13.88;;;;;;;4.36;78.28;101616.73;1735285;82;20992;-44
2021/11/13 00:23:19;;;;;;;21.15;14.40;;;;;;;4.34;78.41;101615.83;1735060;81;20992;-43
2021/11/13 00:25:47;;;;;;;22.32;14.40;;;;;;;4.31;78.53;101622.61;1735350;82;21569;-43
2021/11/13 00:28:13;;;;;;;22.93;13.20;;;;;;;4.28;78.58;101625.09;1735391;82;21100;-44
2021/11/13 00:30:41;;;;;;;22.67;13.35;;;;;;;4.28;78.59;101628.94;1735252;82;20928;-44
2021/11/13 00:33:09;;;;;;;22.30;13.95;;;;;;;4.26;78.55;101630.59;1735087;82;21012;-44
2021/11/13 00:35:35;;;;;;;22.05;13.98;;;;;;;4.24;78.60;101624.97;1735446;82;21487;-44
2021/11/13 00:38:02;;;;;;;19.32;13.62;;;;;;;4.22;78.64;101626.22;1735413;82;20947;-44
2021/11/13 00:40:28;;;;;;;21.37;14.07;;;;;;;4.20;78.60;101622.75;1735264;82;21134;-44
2021/11/13 00:42:55;;;;;;;22.02;14.30;;;;;;;4.17;78.58;101620.11;1735278;82;20933;-44
2021/11/13 00:45:21;;;;;;;21.80;14.90;;;;;;;4.19;78.56;101615.01;1735322;82;21025;-44
2021/11/13 00:47:48;;;;;;;23.87;14.10;;;;;;;4.13;78.48;101616.98;1735211;82;21012;-44
2021/11/13 00:50:15;;;;;;;19.62;13.72;;;;;;;4.13;78.48;101616.98;1735455;81;21361;-43
2021/11/13 00:52:43;;;;;;;24.40;14.55;;;;;;;4.09;78.83;101616.06;1735138;82;21347;-43
2021/11/13 00:55:11;;;;;;;20.92;14.35;;;;;;;4.05;78.74;101621.93;1735362;81;20957;-43
2021/11/13 00:57:37;;;;;;;23.20;15.10;;;;;;;4.01;78.79;101620.09;1735395;82;20949;-43
2021/11/13 01:00:07;;;;;;;20.90;13.83;;;;;;;3.96;78.83;101622.55;1714204;82;21055;-44
2021/11/13 01:02:34;;;;;;;20.25;14.70;;;;;;;3.88;79.33;101624.00;1735248;82;20944;-43
2021/11/13 01:05:01;;;;;;;23.47;15.50;;;;;;;3.76;79.69;101616.84;1735196;81;21862;-43
2021/11/13 01:07:28;;;;;;;21.97;14.25;;;;;;;3.68;80.32;101615.37;1735291;82;21011;-43
2021/11/13 01:09:54;;;;;;;22.05;14.65;;;;;;;3.61;80.35;101617.27;1735279;82;21498;-43
2021/11/13 01:12:21;;;;;;;25.45;15.93;;;;;;;3.50;80.62;101619.52;1715661;81;20941;-44
2021/11/13 01:14:47;;;;;;;27.05;15.58;;;;;;;3.39;80.87;101620.48;1749288;82;20957;-44
2021/11/13 01:17:16;;;;;;;25.10;15.63;;;;;;;3.27;81.28;101620.13;1749419;82;20968;-44
2021/11/13 01:19:47;;;;;;;23.73;15.50;;;;;;;3.13;81.79;101618.42;1749199;82;20977;-44
2021/11/13 01:22:16;;;;;;;22.17;15.72;;;;;;;3.01;82.46;101626.59;1749188;82;21522;-44
2021/11/13 01:24:44;;;;;;;26.90;15.10;;;;;;;2.96;82.81;101638.37;1749154;82;20897;-44
2021/11/13 01:27:12;;;;;;;31.42;16.00;;;;;;;2.88;83.08;101630.45;1749166;82;21427;-44
2021/11/13 01:29:38;;;;;;;34.35;16.42;;;;;;;2.79;83.59;101629.73;1749187;82;21142;-44
2021/11/13 01:32:07;;;;;;;31.40;16.67;;;;;;;2.74;84.00;101635.11;1749048;82;20980;-44
2021/11/13 01:34:39;;;;;;;23.15;15.13;;;;;;;2.69;84.55;101623.87;1722692;82;20976;-44
2021/11/13 01:37:07;;;;;;;26.02;14.95;;;;;;;2.64;84.68;101621.55;1749070;82;20968;-44
2021/11/13 01:39:36;;;;;;;79.40;19.67;;;;;;;2.56;84.87;101627.28;1749184;82;20991;-44
2021/11/13 01:42:04;;;;;;;27.07;15.55;;;;;;;2.47;85.11;101620.59;1749219;82;21081;-43
2021/11/13 01:44:33;;;;;;;24.75;15.45;;;;;;;2.40;85.31;101628.45;1691573;82;20956;-43
2021/11/13 01:46:59;;;;;;;23.20;14.80;;;;;;;2.34;86.88;101626.09;1749131;82;20983;-43
2021/11/13 01:49:25;;;;;;;24.15;14.43;;;;;;;2.24;87.00;101630.91;1749267;82;20936;-43
2021/11/13 01:51:53;;;;;;;24.98;15.10;;;;;;;2.17;87.29;101627.68;1749376;82;21016;-43
2021/11/13 01:54:20;;;;;;;28.30;16.10;;;;;;;2.16;87.74;101631.05;1749329;80;21912;-44
2021/11/13 01:56:50;;;;;;;23.80;16.25;;;;;;;2.17;87.90;101632.80;1749100;82;21007;-43
2021/11/13 01:59:15;;;;;;;27.07;15.75;;;;;;;2.19;88.03;101634.98;1749248;81;20960;-43
2021/11/13 02:01:44;;;;;;;23.25;16.55;;;;;;;2.21;87.97;101641.41;1749257;82;20943;-43
2021/11/13 02:04:10;;;;;;;26.42;16.85;;;;;;;2.21;88.19;101639.74;1721827;82;21019;-43
2021/11/13 02:06:37;;;;;;;34.73;17.55;;;;;;;2.23;88.47;101636.83;1749035;82;21304;-43
2021/11/13 02:09:06;;;;;;;22.73;15.93;;;;;;;2.26;88.73;101635.66;1749325;82;21497;-43
2021/11/13 02:11:33;;;;;;;28.30;16.10;;;;;;;2.28;89.02;101641.69;1749462;82;20977;-43
2021/11/13 02:14:00;;;;;;;29.15;15.75;;;;;;;2.33;89.10;101640.97;1740016;82;20985;-44
2021/11/13 02:16:26;;;;;;;28.70;17.02;;;;;;;2.36;89.28;101649.63;1735248;82;20992;-44
2021/11/13 02:18:54;;;;;;;47.27;18.55;;;;;;;2.36;89.44;101642.34;1735590;82;21125;-43
2021/11/13 02:21:21;;;;;;;64.65;18.12;;;;;;;2.39;89.73;101648.45;1735226;82;21000;-44
2021/11/13 02:23:49;;;;;;;58.45;17.52;;;;;;;2.42;89.86;101652.81;1735343;82;22152;-44
2021/11/13 02:26:16;;;;;;;41.80;17.05;;;;;;;2.46;90.02;101654.65;1735150;81;21535;-44
2021/11/13 02:28:42;;;;;;;31.48;16.05;;;;;;;2.51;90.12;101662.05;1735255;81;20976;-44
2021/11/13 02:31:11;;;;;;;37.85;17.50;;;;;;;2.56;90.25;101664.78;1735401;82;21140;-44
2021/11/13 02:33:38;;;;;;;48.87;17.73;;;;;;;2.61;90.28;101660.69;1735311;82;20889;-44
2021/11/13 02:36:07;;;;;;;38.02;16.95;;;;;;;2.66;90.24;101657.02;1735289;82;21474;-44
2021/11/13 02:38:39;;;;;;;33.50;17.95;;;;;;;2.75;90.24;101661.14;1735445;82;20996;-44
2021/11/13 02:41:10;;;;;;;40.03;17.42;;;;;;;2.81;90.07;101664.32;1735169;81;20961;-44
2021/11/13 02:43:37;;;;;;;25.75;15.08;;;;;;;2.81;89.92;101669.44;1735413;82;21042;-44
2021/11/13 02:46:08;;;;;;;35.40;14.60;;;;;;;2.82;89.97;101666.91;1735227;82;21008;-44
2021/11/13 02:48:37;;;;;;;26.55;14.80;;;;;;;2.85;90.02;101664.45;1735492;82;21490;-44
2021/11/13 02:51:05;;;;;;;22.65;13.80;;;;;;;2.87;89.89;101679.44;1735187;82;20980;-44
2021/11/13 02:53:32;;;;;;;23.62;14.95;;;;;;;2.85;90.18;101676.39;1735040;82;21004;-44
2021/11/13 02:56:02;;;;;;;26.70;15.18;;;;;;;2.81;90.49;101691.17;1735310;81;21098;-44
2021/11/13 02:58:29;;;;;;;45.60;17.40;;;;;;;2.77;90.63;101686.36;1735364;81;20957;-44
2021/11/13 03:00:59;;;;;;;35.48;17.02;;;;;;;2.81;90.90;101691.17;1735384;82;21016;-44
2021/11/13 03:03:25;;;;;;;25.60;15.85;;;;;;;2.88;91.08;101690.13;1735254;82;21467;-43
2021/11/13 03:05:56;;;;;;;29.15;15.98;;;;;;;2.98;90.94;101687.47;1735201;81;20953;-44
2021/11/13 03:08:32;;;;;;;26.48;15.45;;;;;;;3.04;90.90;101696.19;1735161;82;21972;-44
2021/11/13 03:11:10;;;;;;;29.85;16.07;;;;;;;3.12;90.87;101698.14;1735221;82;20963;-44
2021/11/13 03:13:39;;;;;;;36.33;17.37;;;;;;;3.21;90.57;101696.30;1738036;81;22066;-44
2021/11/13 03:16:06;;;;;;;27.52;16.12;;;;;;;3.28;90.19;101695.69;1743277;81;21040;-44
2021/11/13 03:18:33;;;;;;;40.45;17.42;;;;;;;3.33;89.85;101691.97;1743389;82;21506;-44
2021/11/13 03:21:05;;;;;;;39.48;17.07;;;;;;;3.36;89.58;101689.51;1743406;82;21126;-45
2021/11/13 03:23:28;;;;;;;30.90;16.45;;;;;;;3.40;89.40;101685.36;1743295;81;21646;-45
2021/11/13 03:26:03;;;;;;;23.22;15.75;;;;;;;3.43;88.92;101690.57;1743382;82;20968;-44
2021/11/13 03:28:30;;;;;;;29.63;16.32;;;;;;;3.45;88.62;101678.69;1714396;82;20933;-44
2021/11/13 03:31:01;;;;;;;43.00;17.48;;;;;;;3.47;88.39;101680.02;1743276;82;20952;-45
2021/11/13 03:33:25;;;;;;;34.95;16.67;;;;;;;3.49;88.14;101688.19;1743111;82;21054;-43
2021/11/13 03:35:52;;;;;;;43.38;18.70;;;;;;;3.51;87.91;101685.69;1743449;82;20993;-44
2021/11/13 03:38:18;;;;;;;32.60;17.77;;;;;;;3.52;87.82;101686.15;1714006;82;20980;-45
2021/11/13 03:40:47;;;;;;;31.60;17.73;;;;;;;3.51;87.79;101681.85;1743393;82;20987;-44
2021/11/13 03:43:15;;;;;;;31.17;18.73;;;;;;;3.50;87.81;101682.67;1738786;81;20924;-44
2021/11/13 03:45:43;;;;;;;25.95;16.42;;;;;;;3.48;87.76;101694.56;1743554;82;21967;-44
2021/11/13 03:48:10;;;;;;;30.50;18.07;;;;;;;3.48;87.78;101693.28;1714526;82;20956;-44
2021/11/13 03:50:37;;;;;;;29.05;17.87;;;;;;;3.43;87.82;101696.58;1743405;82;21621;-44
2021/11/13 03:53:05;;;;;;;45.08;19.48;;;;;;;3.42;87.80;101702.52;1743451;81;20984;-44
2021/11/13 03:55:33;;;;;;;39.40;18.67;;;;;;;3.41;87.82;101700.78;1743524;82;21036;-44
2021/11/13 03:57:59;;;;;;;47.83;18.15;;;;;;;3.40;87.91;101702.86;1743587;82;21084;-44
2021/11/13 04:00:26;;;;;;;29.42;16.30;;;;;;;3.41;88.00;101705.02;1743494;81;21521;-44
2021/11/13 04:02:53;;;;;;;34.67;17.02;;;;;;;3.41;88.01;101714.86;1743616;82;20928;-44
2021/11/13 04:05:20;;;;;;;34.05;17.62;;;;;;;3.38;87.86;101712.18;1743711;82;20967;-44
2021/11/13 04:07:48;;;;;;;45.23;17.48;;;;;;;3.38;87.86;101712.18;1743539;81;21042;-43
2021/11/13 04:10:15;;;;;;;32.93;16.93;;;;;;;3.40;88.23;101708.41;1714025;82;21021;-43
2021/11/13 04:12:42;;;;;;;47.75;17.10;;;;;;;3.39;88.30;101714.34;1743320;81;20960;-43
2021/11/13 04:15:10;;;;;;;34.60;16.80;;;;;;;3.40;88.39;101717.36;1748405;81;22237;-44
2021/11/13 04:17:38;;;;;;;39.45;17.07;;;;;;;3.41;88.37;101718.70;1721476;82;21026;-43
2021/11/13 04:20:06;;;;;;;34.90;16.45;;;;;;;3.45;88.21;101720.53;1749185;82;20952;-43
2021/11/13 04:22:34;;;;;;;61.40;17.30;;;;;;;3.48;88.16;101722.73;1749241;82;20967;-43
2021/11/13 04:25:01;;;;;;;44.15;16.32;;;;;;;3.51;88.08;101727.52;1749164;82;21532;-44
2021/11/13 04:27:27;;;;;;;43.45;17.48;;;;;;;3.51;88.05;101726.23;1749453;81;20963;-44
2021/11/13 04:29:54;;;;;;;51.68;15.72;;;;;;;3.49;88.02;101724.47;1749323;82;20964;-45
2021/11/13 04:32:20;;;;;;;34.67;16.20;;;;;;;3.49;88.02;101724.47;1749279;82;20936;-44
2021/11/13 04:35:13;;;;;;;37.13;16.25;;;;;;;3.52;88.40;101732.23;1749331;82;21137;-44
2021/11/13 04:37:21;;;;;;;37.00;15.48;;;;;;;3.52;88.40;101732.23;1748824;81;20936;-44
2021/11/13 04:39:48;;;;;;;39.15;16.60;;;;;;;3.53;88.19;101732.70;1749317;82;20944;-44
2021/11/13 04:42:16;;;;;;;32.60;16.75;;;;;;;3.51;88.26;101731.78;1749191;82;20972;-44
2021/11/13 04:44:43;;;;;;;34.83;15.50;;;;;;;3.51;88.26;101731.78;1749459;82;20935;-44
2021/11/13 04:47:10;;;;;;;44.10;15.13;;;;;;;3.50;87.94;101735.16;1749391;82;21136;-44
2021/11/13 04:49:37;;;;;;;41.05;15.58;;;;;;;3.50;87.89;101736.02;1749111;81;20940;-45
2021/11/13 04:52:05;;;;;;;45.03;16.40;;;;;;;3.50;87.85;101742.84;1749408;82;20932;-44
2021/11/13 04:54:32;;;;;;;38.90;17.10;;;;;;;3.47;87.95;101739.77;1749179;82;21533;-44
2021/11/13 04:56:58;;;;;;;40.70;15.65;;;;;;;3.48;88.16;101748.33;1749595;82;20979;-44
2021/11/13 04:59:25;;;;;;;27.85;15.13;;;;;;;3.48;88.18;101756.86;1749206;82;21134;-44
2021/11/13 05:01:51;;;;;;;40.12;16.73;;;;;;;3.50;88.24;101754.37;1749277;82;20964;-44
2021/11/13 05:04:18;;;;;;;36.23;15.93;;;;;;;3.48;88.32;101750.47;1749450;82;21008;-43
2021/11/13 05:06:46;;;;;;;67.60;19.98;;;;;;;3.48;88.31;101756.02;1749318;82;20904;-42
2021/11/13 05:09:12;;;;;;;28.25;14.90;;;;;;;3.49;88.28;101755.19;1721531;82;20885;-44
2021/11/13 05:11:40;;;;;;;34.65;15.50;;;;;;;3.56;88.14;101762.23;1749345;82;21159;-44
2021/11/13 05:14:06;;;;;;;31.33;15.15;;;;;;;3.58;88.06;101763.15;1745111;81;20937;-44
2021/11/13 05:16:34;;;;;;;21.57;15.05;;;;;;;3.58;88.00;101764.03;1735307;82;20941;-43
2021/11/13 05:19:01;;;;;;;47.83;16.50;;;;;;;3.58;87.92;101764.03;1735133;82;20920;-43
2021/11/13 05:21:27;;;;;;;33.53;14.58;;;;;;;3.54;87.77;101757.48;1735262;82;21035;-45
2021/11/13 05:23:54;;;;;;;42.33;16.07;;;;;;;3.49;87.80;101759.03;1735299;82;21126;-44
2021/11/13 05:26:20;;;;;;;46.85;17.27;;;;;;;3.44;87.79;101761.44;1735273;81;21593;-45
2021/11/13 05:28:48;;;;;;;33.28;15.90;;;;;;;3.39;87.90;101767.67;1714160;82;20964;-44
2021/11/13 05:31:14;;;;;;;49.55;16.70;;;;;;;3.32;87.92;101773.42;1735489;82;20968;-44
2021/11/13 05:33:41;;;;;;;36.10;18.07;;;;;;;3.25;88.01;101766.38;1735289;81;20944;-44
2021/11/13 05:36:08;;;;;;;34.35;15.80;;;;;;;3.19;88.54;101768.74;1735191;82;21048;-44
2021/11/13 05:38:34;;;;;;;24.50;14.53;;;;;;;3.14;88.76;101782.23;1735235;82;20933;-45
2021/11/13 05:41:01;;;;;;;32.80;15.38;;;;;;;3.07;88.66;101783.28;1735263;82;20902;-44
2021/11/13 05:43:27;;;;;;;40.12;16.85;;;;;;;2.97;88.72;101782.09;1735203;82;21513;-44
2021/11/13 05:45:54;;;;;;;37.20;18.17;;;;;;;2.85;89.01;101791.06;1735219;82;20984;-44
2021/11/13 05:48:22;;;;;;;41.05;16.48;;;;;;;2.85;89.01;101791.06;1714315;82;21239;-44
2021/11/13 05:50:48;;;;;;;41.65;16.62;;;;;;;2.82;89.26;101788.41;1735489;81;20977;-44
2021/11/13 05:53:14;;;;;;;48.98;18.42;;;;;;;2.80;89.54;101793.88;1735159;82;21695;-44
2021/11/13 05:55:41;;;;;;;34.73;17.07;;;;;;;2.83;89.90;101800.38;1735197;82;20976;-44
2021/11/13 05:58:07;;;;;;;32.08;16.02;;;;;;;2.88;90.02;101808.22;1714177;82;21565;-44
2021/11/13 06:00:35;;;;;;;36.85;18.82;;;;;;;2.94;90.12;101807.57;1735240;82;21091;-45
2021/11/13 06:03:02;;;;;;;56.25;26.48;;;;;;;3.03;90.07;101818.11;1735101;82;20944;-44
2021/11/13 06:05:29;;;;;;;63.25;30.62;;;;;;;3.10;90.08;101820.48;1735207;82;21011;-43
2021/11/13 06:07:56;;;;;;;65.57;32.13;;;;;;;3.18;90.18;101829.70;1735163;82;20977;-44
2021/11/13 06:10:22;;;;;;;43.75;25.12;;;;;;;3.24;90.12;101826.06;1735218;81;20981;-42
2021/11/13 06:12:49;;;;;;;36.25;20.17;;;;;;;3.30;90.02;101828.43;1735460;81;21265;-44
2021/11/13 06:15:16;;;;;;;43.55;19.50;;;;;;;3.39;89.92;101833.38;1744074;81;21011;-44
2021/11/13 06:17:43;;;;;;;33.55;19.92;;;;;;;3.45;89.79;101834.47;1749029;81;20996;-44
2021/11/13 06:20:10;;;;;;;36.05;20.45;;;;;;;3.51;89.69;101827.80;1749230;82;21019;-45
2021/11/13 06:22:38;;;;;;;38.02;21.42;;;;;;;3.55;89.43;101833.08;1722256;82;21023;-44
2021/11/13 06:25:08;;;;;;;38.15;20.52;;;;;;;3.58;89.15;101834.85;1749228;82;21130;-43
2021/11/13 06:27:36;;;;;;;41.75;22.27;;;;;;;3.59;89.10;101834.91;1749041;82;20885;-44
2021/11/13 06:30:05;;;;;;;38.13;22.55;;;;;;;3.57;88.85;101836.56;1721266;82;21537;-44
2021/11/13 06:32:31;;;;;;;46.08;24.12;;;;;;;3.57;88.82;101840.80;1749095;82;21011;-44
2021/11/13 06:34:59;;;;;;;42.65;23.47;;;;;;;3.54;88.77;101847.98;1749460;82;20960;-44
2021/11/13 06:37:27;;;;;;;36.65;22.55;;;;;;;3.60;88.83;101852.41;1749157;82;21128;-43
2021/11/13 06:39:54;;;;;;;46.77;22.67;;;;;;;3.66;88.82;101853.89;1749064;82;21004;-44
2021/11/13 06:42:21;;;;;;;36.00;20.68;;;;;;;3.74;88.77;101852.47;1749144;82;21014;-44
2021/11/13 06:44:47;;;;;;;37.08;21.27;;;;;;;3.81;88.65;101848.81;1749220;80;21026;-44
2021/11/13 06:47:14;;;;;;;38.67;20.75;;;;;;;3.93;88.66;101855.62;1749159;80;20983;-44
2021/11/13 06:49:40;;;;;;;25.62;16.37;;;;;;;4.12;88.31;101851.04;1749599;82;21673;-44
2021/11/13 06:52:07;;;;;;;32.40;17.48;;;;;;;4.12;88.31;101851.04;1748979;82;21101;-45
2021/11/13 06:54:33;;;;;;;32.50;16.57;;;;;;;4.21;88.04;101853.02;1748999;82;21023;-44
2021/11/13 06:57:00;;;;;;;32.83;18.32;;;;;;;4.29;87.56;101852.44;1749127;82;20964;-44
2021/11/13 06:59:27;;;;;;;30.08;16.20;;;;;;;4.39;86.91;101861.67;1748970;82;20940;-44
2021/11/13 07:01:53;;;;;;;30.72;16.23;;;;;;;4.47;86.42;101858.94;1749169;82;21110;-45
2021/11/13 07:04:21;;;;;;;38.35;17.07;;;;;;;4.59;86.14;101868.69;1749183;82;21004;-45
2021/11/13 07:06:47;;;;;;;31.35;16.35;;;;;;;4.74;85.79;101870.81;1749227;82;21512;-44
2021/11/13 07:09:14;;;;;;;28.52;16.40;;;;;;;4.74;85.79;101870.81;1749107;82;20959;-44
2021/11/13 07:11:40;;;;;;;30.02;17.27;;;;;;;4.80;85.13;101870.09;1749390;82;20979;-44
2021/11/13 07:14:09;;;;;;;31.95;16.40;;;;;;;4.89;84.99;101864.81;1748599;81;21143;-45
2021/11/13 07:16:37;;;;;;;31.02;17.45;;;;;;;4.96;84.88;101854.73;1735165;82;21316;-45
2021/11/13 07:19:05;;;;;;;28.20;17.15;;;;;;;5.04;84.71;101855.80;1735379;82;22210;-44
2021/11/13 07:21:32;;;;;;;26.90;15.38;;;;;;;5.11;84.44;101855.56;1735316;82;21383;-43
2021/11/13 07:23:59;;;;;;;26.40;16.15;;;;;;;5.21;83.96;101860.53;1713950;82;21051;-44
2021/11/13 07:26:27;;;;;;;28.25;15.00;;;;;;;5.32;83.70;101864.23;1735205;82;22156;-45
2021/11/13 07:31:01;;;;;;;28.27;16.75;;;;;;;5.50;82.99;101855.27;1797570;79;22350;-46
2021/11/13 07:33:27;;;;;;;27.90;17.20;;;;;;;5.54;82.72;101856.64;1757327;81;20987;-44
2021/11/13 07:35:54;;;;;;;26.12;16.07;;;;;;;5.63;82.42;101858.58;1757322;81;21143;-44
2021/11/13 07:38:21;;;;;;;29.05;17.25;;;;;;;5.73;82.16;101851.96;1757666;81;20940;-45
2021/11/13 07:40:49;;;;;;;30.35;16.97;;;;;;;5.84;80.82;101853.50;1757561;81;20975;-44
2021/11/13 07:43:16;;;;;;;45.67;25.30;;;;;;;5.88;80.54;101857.48;1757180;81;20983;-44
2021/11/13 07:45:42;;;;;;;28.95;18.45;;;;;;;5.95;79.95;101861.06;1757497;81;21327;-45
2021/11/13 07:48:09;;;;;;;26.23;15.83;;;;;;;6.01;79.33;101861.23;1757466;81;21869;-44
2021/11/13 07:50:37;;;;;;;25.65;16.00;;;;;;;6.09;79.10;101860.53;1757456;81;20948;-45
2021/11/13 07:53:06;;;;;;;25.00;14.98;;;;;;;6.20;77.69;101864.23;1755254;81;20944;-43
2021/11/13 07:55:33;;;;;;;28.27;15.08;;;;;;;6.25;77.02;101867.77;1748803;82;20979;-45
2021/11/13 07:58:00;;;;;;;33.10;16.82;;;;;;;6.30;77.53;101867.44;1749047;81;21457;-44
2021/11/13 08:00:27;;;;;;;24.87;14.53;;;;;;;6.41;76.98;101874.51;1749191;82;21133;-44
2021/11/13 08:02:54;;;;;;;29.00;15.03;;;;;;;6.52;76.20;101867.91;1748985;82;20936;-47
2021/11/13 08:05:22;;;;;;;25.50;15.35;;;;;;;6.57;76.29;101865.00;1749113;82;21486;-44
2021/11/13 08:07:50;;;;;;;27.37;14.83;;;;;;;6.58;75.84;101868.46;1749262;82;20952;-45
2021/11/13 08:10:17;;;;;;;27.75;15.18;;;;;;;6.55;75.16;101877.37;1749440;81;21036;-44
2021/11/13 08:12:45;;;;;;;24.67;13.60;;;;;;;6.47;75.09;101872.95;1749242;82;21902;-44
2021/11/13 08:15:11;;;;;;;27.73;14.90;;;;;;;6.40;75.37;101876.63;1749078;80;20976;-43
2021/11/13 08:17:41;;;;;;;25.88;15.10;;;;;;;6.38;76.11;101879.19;1748985;82;20940;-45
2021/11/13 08:20:09;;;;;;;33.90;15.23;;;;;;;6.47;76.11;101872.95;1749015;82;20937;-44
2021/11/13 08:22:36;;;;;;;24.65;13.62;;;;;;;6.65;75.65;101878.03;1748991;82;20955;-43
2021/11/13 08:25:06;;;;;;;25.62;14.03;;;;;;;6.79;75.12;101881.29;1749028;82;21121;-43
2021/11/13 08:27:33;;;;;;;25.43;14.10;;;;;;;6.93;75.22;101877.70;1749323;82;21015;-44
2021/11/13 08:29:59;;;;;;;23.30;13.60;;;;;;;7.05;74.52;101876.23;1742913;81;20969;-43
2021/11/13 08:32:25;;;;;;;25.40;13.90;;;;;;;7.15;72.96;101872.12;1735771;82;20995;-44
2021/11/13 08:34:52;;;;;;;26.37;14.85;;;;;;;7.16;72.89;101873.86;1735994;82;21526;-47
2021/11/13 08:37:18;;;;;;;29.40;14.00;;;;;;;7.22;72.74;101871.82;1735862;82;21701;-44
2021/11/13 08:39:45;;;;;;;26.87;14.23;;;;;;;7.27;72.28;101873.20;1735762;82;20983;-45
2021/11/13 08:42:14;;;;;;;23.87;13.43;;;;;;;7.26;71.87;101876.62;1735181;81;21525;-44
2021/11/13 08:44:44;;;;;;;26.40;14.38;;;;;;;7.24;72.31;101883.45;1735252;82;21004;-45
2021/11/13 08:47:12;;;;;;;26.37;14.50;;;;;;;7.27;72.07;101879.64;1735324;82;21023;-45
2021/11/13 08:49:41;;;;;;;25.97;15.18;;;;;;;7.28;72.04;101878.36;1735313;82;21942;-45
2021/11/13 08:52:09;;;;;;;23.38;12.75;;;;;;;7.38;71.91;101871.67;1735473;82;20937;-46
2021/11/13 08:54:37;;;;;;;26.42;15.40;;;;;;;7.56;71.71;101881.41;1735232;82;20993;-45
2021/11/13 08:57:04;;;;;;;25.77;14.20;;;;;;;7.78;71.16;101872.75;1735274;82;20972;-44
2021/11/13 08:59:32;;;;;;;33.70;15.18;;;;;;;7.93;70.09;101878.56;1735484;82;20937;-45
2021/11/13 09:02:00;;;;;;;30.32;16.17;;;;;;;7.96;70.13;101877.76;1735745;82;21074;-45
2021/11/13 09:04:28;;;;;;;24.80;14.75;;;;;;;7.94;69.10;101879.45;1735334;82;21040;-44
2021/11/13 09:06:57;;;;;;;34.13;17.48;;;;;;;7.84;69.82;101881.02;1735253;82;21461;-44
2021/11/13 09:09:24;;;;;;;27.35;13.40;;;;;;;7.94;69.75;101875.14;1735354;82;20967;-44
2021/11/13 09:11:53;;;;;;;27.10;14.47;;;;;;;8.07;68.89;101876.63;1735462;82;21518;-44
2021/11/13 09:14:20;;;;;;;32.38;15.40;;;;;;;8.15;68.84;101875.02;1735205;82;21196;-44
2021/11/13 09:16:48;;;;;;;23.52;14.28;;;;;;;8.23;68.75;101873.44;1735159;82;20949;-44
2021/11/13 09:19:14;;;;;;;25.70;15.05;;;;;;;8.37;66.73;101876.61;1714258;82;20953;-44
2021/11/13 09:21:41;;;;;;;26.50;14.15;;;;;;;8.38;67.57;101871.48;1735236;82;21039;-45
2021/11/13 09:24:08;;;;;;;32.08;15.18;;;;;;;8.51;66.60;101863.92;1714559;82;20969;-45
2021/11/13 09:26:37;;;;;;;39.30;16.27;;;;;;;8.58;66.77;101869.19;1735307;82;21968;-45
2021/11/13 09:29:05;;;;;;;29.65;13.68;;;;;;;8.67;66.62;101862.39;1735296;82;20933;-45
2021/11/13 09:31:35;;;;;;;28.50;15.25;;;;;;;8.74;65.82;101861.64;1735253;81;20953;-44
2021/11/13 09:34:02;;;;;;;32.45;15.05;;;;;;;8.63;65.56;101859.78;1735278;81;20890;-45
2021/11/13 09:36:29;;;;;;;28.55;15.13;;;;;;;8.56;66.07;101857.09;1735334;82;21541;-44
2021/11/13 09:38:58;;;;;;;25.35;13.62;;;;;;;8.71;65.79;101854.71;1735360;82;21012;-44
2021/11/13 09:41:25;;;;;;;28.05;15.03;;;;;;;8.62;65.93;101856.75;1735264;82;21019;-44
2021/11/13 09:43:51;;;;;;;29.80;16.55;;;;;;;8.63;65.94;101861.06;1735222;82;20969;-44
2021/11/13 09:46:18;;;;;;;21.77;13.68;;;;;;;8.68;66.09;101865.41;1735175;82;20992;-44
2021/11/13 09:48:44;;;;;;;24.63;14.15;;;;;;;8.83;66.32;101864.31;1735655;82;21051;-44
2021/11/13 09:51:11;;;;;;;22.20;13.00;;;;;;;9.03;65.80;101855.48;1735392;82;21783;-44
2021/11/13 09:53:38;;;;;;;24.05;14.28;;;;;;;9.28;65.31;101865.20;1735077;82;20973;-44
2021/11/13 09:56:05;;;;;;;23.55;14.28;;;;;;;9.49;64.05;101869.28;1735248;82;20929;-44
2021/11/13 09:58:31;;;;;;;28.92;15.13;;;;;;;9.45;62.81;101867.94;1735428;82;21521;-45
2021/11/13 10:01:00;;;;;;;25.65;14.50;;;;;;;9.39;62.89;101866.60;1735348;82;20976;-45
2021/11/13 10:03:28;;;;;;;27.07;14.35;;;;;;;9.33;63.50;101867.41;1735179;82;21119;-45
2021/11/13 10:05:58;;;;;;;30.30;14.78;;;;;;;9.32;63.62;101869.11;1735372;82;21621;-45
2021/11/13 10:08:25;;;;;;;25.30;14.93;;;;;;;9.46;63.41;101865.35;1735449;82;20936;-45
2021/11/13 10:11:00;;;;;;;26.75;14.83;;;;;;;9.56;62.65;101869.33;1735248;82;21008;-47
2021/11/13 10:13:45;;;;;;;27.32;15.38;;;;;;;9.66;62.75;101873.70;1735297;82;21004;-45
2021/11/13 10:16:16;;;;;;;27.07;15.83;;;;;;;9.85;62.51;101871.27;1735550;82;21134;-44
2021/11/13 10:18:48;;;;;;;26.05;15.55;;;;;;;10.03;60.96;101858.88;1735552;82;20929;-46
2021/11/13 10:21:25;;;;;;;28.73;15.70;;;;;;;9.92;61.54;101862.28;1735162;82;21526;-45
2021/11/13 10:23:59;;;;;;;28.30;15.70;;;;;;;9.95;60.95;101865.30;1732131;82;21071;-44
2021/11/13 10:26:34;;;;;;;29.75;16.27;;;;;;;9.76;61.64;101857.43;1735360;82;20976;-44
2021/11/13 10:29:12;;;;;;;24.92;14.87;;;;;;;9.86;61.96;101862.66;1735173;82;21137;-44
2021/11/13 10:31:42;;;;;;;30.85;15.68;;;;;;;10.02;60.77;101864.91;1735227;81;20901;-44
2021/11/13 10:34:14;;;;;;;27.37;15.58;;;;;;;9.94;60.84;101860.98;1735160;81;20929;-44
2021/11/13 10:36:44;;;;;;;25.23;15.13;;;;;;;10.08;60.75;101860.21;1734789;82;21007;-44
2021/11/13 10:39:21;;;;;;;25.62;14.65;;;;;;;10.01;60.40;101858.89;1735179;82;20988;-47
2021/11/13 10:41:55;;;;;;;25.02;14.87;;;;;;;9.85;60.70;101859.63;1735156;82;21147;-46
2021/11/13 10:44:29;;;;;;;67.75;16.60;;;;;;;9.95;61.05;101857.98;1735236;82;20897;-46
2021/11/13 10:46:58;;;;;;;34.48;14.78;;;;;;;10.18;60.77;101855.11;1731805;82;20972;-45
2021/11/13 10:49:25;;;;;;;31.25;14.80;;;;;;;10.42;60.52;101844.89;1735538;82;21011;-45
2021/11/13 10:51:56;;;;;;;23.30;13.62;;;;;;;10.72;59.68;101849.33;1735270;82;21052;-45
2021/11/13 10:54:23;;;;;;;26.87;14.07;;;;;;;10.73;58.10;101850.17;1735190;82;21038;-45
2021/11/13 10:56:56;;;;;;;30.90;13.88;;;;;;;10.44;58.90;101854.40;1735347;82;21494;-44
2021/11/13 10:59:34;;;;;;;26.52;13.93;;;;;;;10.40;59.49;101855.63;1735275;82;21011;-45
2021/11/13 11:02:05;;;;;;;22.95;13.05;;;;;;;10.38;59.56;101854.77;1735119;82;20940;-45
2021/11/13 11:04:35;;;;;;;24.75;13.58;;;;;;;10.38;59.66;101862.11;1735209;82;21039;-45
2021/11/13 11:07:20;;;;;;;22.20;14.13;;;;;;;10.46;58.88;101856.98;1735252;82;21796;-45
2021/11/13 11:10:01;;;;;;;31.70;14.90;;;;;;;10.45;59.03;101853.54;1734764;82;21567;-46
2021/11/13 11:12:29;;;;;;;23.05;12.60;;;;;;;10.57;59.13;101856.61;1735177;82;21510;-45
2021/11/13 11:14:56;;;;;;;30.02;14.93;;;;;;;10.69;58.40;101852.33;1735103;82;20996;-48
2021/11/13 11:17:27;;;;;;;25.68;14.47;;;;;;;10.75;58.39;101849.77;1735188;82;21028;-46
2021/11/13 11:20:04;;;;;;;26.95;14.43;;;;;;;10.53;57.38;101850.11;1735419;82;21070;-44
2021/11/13 11:22:31;;;;;;;26.42;14.83;;;;;;;10.13;58.63;101856.80;1735326;82;22140;-45